createdAt,value
2018-09-14T00:00:12.973Z,60.00
2018-09-14T00:02:41.658Z,65.43
2018-09-14T00:05:10.126Z,63.23
2018-09-14T00:07:38.960Z,62.43
2018-09-14T00:10:07.867Z,75.40
2018-09-14T00:12:37.580Z,70.47
2018-09-14T00:15:07.882Z,62.40
2018-09-14T00:17:37.079Z,76.00
2018-09-14T00:20:05.655Z,67.80
2018-09-14T00:22:34.462Z,61.20
2018-09-14T00:25:03.380Z,65.87
2018-09-14T00:27:32.714Z,72.73
2018-09-14T00:30:01.193Z,74.33
2018-09-14T00:32:29.915Z,77.57
2018-09-14T00:34:58.538Z,66.33
2018-09-14T00:37:27.024Z,83.47
2018-09-14T00:39:55.595Z,98.30
2018-09-14T00:42:24.191Z,109.30
2018-09-14T00:44:52.716Z,98.90
2018-09-14T00:47:22.570Z,94.30
2018-09-14T00:49:51.099Z,99.23
2018-09-14T00:52:21.361Z,96.93
2018-09-14T00:54:50.191Z,100.50
2018-09-14T00:57:19.391Z,96.20
2018-09-14T00:59:47.981Z,87.10
2018-09-14T01:02:17.051Z,93.53
2018-09-14T01:04:45.494Z,102.03
2018-09-14T01:07:15.355Z,97.10
2018-09-14T01:09:43.902Z,118.57
2018-09-14T01:12:12.290Z,101.10
2018-09-14T01:14:40.749Z,89.67
2018-09-14T01:17:09.258Z,92.60
2018-09-14T01:19:37.714Z,87.67
2018-09-14T01:22:06.478Z,89.00
2018-09-14T01:24:34.917Z,92.23
2018-09-14T01:27:03.589Z,92.80
2018-09-14T01:29:32.570Z,101.17
2018-09-14T01:32:01.392Z,89.53
2018-09-14T01:34:29.916Z,90.03
2018-09-14T01:36:58.248Z,90.40
2018-09-14T01:39:26.993Z,74.80
2018-09-14T01:41:55.346Z,74.70
2018-09-14T01:44:23.927Z,82.10
2018-09-14T01:46:52.379Z,93.90
2018-09-14T01:49:21.670Z,100.53
2018-09-14T01:51:50.088Z,88.50
2018-09-14T01:54:19.600Z,81.30
2018-09-14T01:56:49.620Z,79.03
2018-09-14T01:59:18.155Z,89.07
2018-09-14T02:01:48.824Z,82.10
2018-09-14T02:04:19.816Z,81.27
2018-09-14T02:06:48.350Z,111.07
2018-09-14T02:09:21.804Z,110.80
2018-09-14T02:11:50.493Z,106.37
2018-09-14T02:14:19.290Z,92.97
2018-09-14T02:16:47.730Z,87.07
2018-09-14T02:19:16.216Z,80.70
2018-09-14T02:21:44.995Z,90.13
2018-09-14T02:24:13.520Z,79.90
2018-09-14T02:26:42.302Z,81.73
2018-09-14T02:29:10.931Z,98.90
2018-09-14T02:31:39.691Z,84.87
2018-09-14T02:34:08.331Z,93.13
2018-09-14T02:36:37.765Z,111.70
2018-09-14T02:39:08.480Z,89.60
2018-09-14T02:41:37.140Z,119.57
2018-09-14T02:44:06.334Z,123.40
2018-09-14T02:46:35.342Z,132.93
2018-09-14T02:49:03.731Z,268.03
2018-09-14T02:51:32.177Z,105.33
2018-09-14T02:54:00.668Z,110.47
2018-09-14T02:56:29.305Z,137.67
2018-09-14T02:58:58.435Z,121.07
2018-09-14T03:01:28.291Z,143.17
2018-09-14T03:03:56.564Z,130.10
2018-09-14T03:06:26.171Z,111.83
2018-09-14T03:08:54.926Z,152.97
2018-09-14T03:11:24.108Z,89.40
2018-09-14T03:13:52.786Z,92.10
2018-09-14T03:16:23.092Z,69.83
2018-09-14T03:18:54.924Z,78.03
2018-09-14T03:21:24.695Z,75.57
2018-09-14T03:23:53.603Z,65.30
2018-09-14T03:26:23.152Z,71.37
2018-09-14T03:28:52.040Z,76.70
2018-09-14T03:31:21.876Z,75.27
2018-09-14T03:33:51.034Z,73.60
2018-09-14T03:36:20.177Z,73.57
2018-09-14T03:38:49.242Z,87.17
2018-09-14T03:41:17.598Z,91.17
2018-09-14T03:43:46.102Z,76.43
2018-09-14T03:46:15.589Z,75.00
2018-09-14T03:48:44.400Z,84.63
2018-09-14T03:51:12.750Z,81.53
2018-09-14T03:53:41.233Z,75.00
2018-09-14T03:56:09.905Z,91.63
2018-09-14T03:58:38.314Z,83.63
2018-09-14T04:01:07.124Z,81.60
2018-09-14T04:03:35.577Z,103.57
2018-09-14T04:06:04.285Z,74.60
2018-09-14T04:08:33.335Z,72.80
2018-09-14T04:11:01.855Z,78.80
2018-09-14T04:13:30.423Z,70.97
2018-09-14T04:15:58.898Z,73.03
2018-09-14T04:18:27.766Z,85.17
2018-09-14T04:20:56.207Z,76.97
2018-09-14T04:23:24.747Z,84.33
2018-09-14T04:25:53.681Z,94.17
2018-09-14T04:28:23.369Z,76.80
2018-09-14T04:30:52.884Z,75.87
2018-09-14T04:33:21.397Z,71.73
2018-09-14T04:35:49.850Z,72.40
2018-09-14T04:38:18.404Z,77.60
2018-09-14T04:40:47.055Z,80.53
2018-09-14T04:43:15.916Z,82.80
2018-09-14T04:45:44.650Z,103.43
2018-09-14T04:48:13.760Z,94.20
2018-09-14T04:50:42.797Z,100.57
2018-09-14T04:53:11.570Z,81.13
2018-09-14T04:55:40.184Z,96.00
2018-09-14T04:58:08.979Z,96.90
2018-09-14T05:00:38.366Z,84.20
2018-09-14T05:03:07.737Z,100.27
2018-09-14T05:05:36.720Z,88.37
2018-09-14T05:08:05.357Z,99.53
2018-09-14T05:10:36.063Z,98.33
2018-09-14T05:13:05.323Z,93.83
2018-09-14T05:15:33.916Z,79.30
2018-09-14T05:18:04.890Z,80.97
2018-09-14T05:20:33.608Z,70.40
2018-09-14T05:23:02.410Z,67.20
2018-09-14T05:25:31.397Z,80.20
2018-09-14T05:28:00.044Z,93.83
2018-09-14T05:30:28.928Z,95.27
2018-09-14T05:32:57.582Z,93.87
2018-09-14T05:35:27.601Z,94.60
2018-09-14T05:37:56.121Z,131.27
2018-09-14T05:40:25.022Z,108.20
2018-09-14T05:42:53.701Z,97.67
2018-09-14T05:45:22.220Z,94.07
2018-09-14T05:47:50.876Z,87.20
2018-09-14T05:50:19.905Z,103.40
2018-09-14T05:52:48.788Z,85.23
2018-09-14T05:55:17.308Z,114.83
2018-09-14T05:57:45.644Z,99.63
2018-09-14T06:00:14.023Z,100.13
2018-09-14T06:02:42.488Z,93.87
2018-09-14T06:05:11.138Z,98.53
2018-09-14T06:07:39.668Z,86.07
2018-09-14T06:10:08.350Z,85.27
2018-09-14T06:12:36.846Z,86.13
2018-09-14T06:15:07.278Z,71.17
2018-09-14T06:17:40.025Z,76.17
2018-09-14T06:20:08.487Z,70.03
2018-09-14T06:22:37.141Z,61.13
2018-09-14T06:25:05.686Z,52.97
2018-09-14T06:27:34.739Z,45.70
2018-09-14T06:30:03.672Z,44.43
2018-09-14T06:32:34.872Z,32.63
2018-09-14T06:35:05.275Z,43.70
2018-09-14T06:37:34.178Z,39.70
2018-09-14T06:40:03.409Z,28.63
2018-09-14T06:42:32.610Z,40.97
2018-09-14T06:45:04.048Z,33.60
2018-09-14T06:47:34.387Z,24.17
2018-09-14T06:50:03.039Z,24.63
2018-09-14T06:52:31.478Z,31.17
2018-09-14T06:55:00.071Z,22.33
2018-09-14T06:57:28.588Z,32.90
2018-09-14T06:59:57.384Z,19.80
2018-09-14T07:02:25.950Z,23.17
2018-09-14T07:04:54.658Z,23.37
2018-09-14T07:07:23.659Z,19.33
2018-09-14T07:09:52.148Z,19.37
2018-09-14T07:12:21.544Z,19.93
2018-09-14T07:14:49.944Z,19.60
2018-09-14T07:17:18.295Z,19.67
2018-09-14T07:19:47.668Z,16.40
2018-09-14T07:22:16.851Z,26.00
2018-09-14T07:24:46.294Z,20.63
2018-09-14T07:27:16.394Z,15.47
2018-09-14T07:29:44.848Z,20.90
2018-09-14T07:32:13.659Z,17.10
2018-09-14T07:34:43.389Z,15.87
2018-09-14T07:37:11.993Z,15.83
2018-09-14T07:39:40.581Z,16.43
2018-09-14T07:42:09.061Z,15.83
2018-09-14T07:44:38.349Z,21.43
2018-09-14T07:47:09.094Z,14.93
2018-09-14T07:49:38.687Z,18.00
2018-09-14T07:52:07.581Z,14.83
2018-09-14T07:54:36.648Z,19.73
2018-09-14T07:57:05.193Z,18.53
2018-09-14T07:59:33.697Z,23.23
2018-09-14T08:02:02.392Z,22.40
2018-09-14T08:04:31.625Z,18.00
2018-09-14T08:07:02.270Z,18.60
2018-09-14T08:09:30.819Z,21.93
2018-09-14T08:12:00.200Z,17.10
2018-09-14T08:14:28.760Z,22.83
2018-09-14T08:16:57.354Z,20.37
2018-09-14T08:19:25.907Z,23.47
2018-09-14T08:21:54.880Z,19.27
2018-09-14T08:24:23.356Z,24.67
2018-09-14T08:26:52.445Z,20.93
2018-09-14T08:29:20.846Z,22.40
2018-09-14T08:31:49.640Z,19.80
2018-09-14T08:34:18.854Z,22.83
2018-09-14T08:36:47.356Z,24.13
2018-09-14T08:39:16.449Z,20.93
2018-09-14T08:41:46.933Z,20.50
2018-09-14T08:44:15.618Z,24.57
2018-09-14T08:46:45.832Z,22.13
2018-09-14T08:49:14.279Z,21.70
2018-09-14T08:51:42.967Z,21.93
2018-09-14T08:54:11.483Z,25.20
2018-09-14T08:56:40.698Z,26.83
2018-09-14T08:59:09.245Z,23.80
2018-09-14T09:01:37.851Z,23.20
2018-09-14T09:04:06.453Z,22.87
2018-09-14T09:06:35.080Z,22.13
2018-09-14T09:09:03.848Z,22.93
2018-09-14T09:11:33.844Z,27.67
2018-09-14T09:14:02.510Z,24.43
2018-09-14T09:16:33.102Z,28.23
2018-09-14T09:19:02.056Z,22.33
2018-09-14T09:21:30.800Z,26.70
2018-09-14T09:24:00.275Z,26.37
2018-09-14T09:26:29.716Z,23.93
2018-09-14T09:28:58.605Z,23.93
2018-09-14T09:31:27.562Z,22.57
2018-09-14T09:33:56.861Z,19.60
2018-09-14T09:36:26.495Z,17.73
2018-09-14T09:38:55.158Z,16.17
2018-09-14T09:41:24.632Z,17.97
2018-09-14T09:43:53.281Z,17.37
2018-09-14T09:46:22.562Z,15.77
2018-09-14T09:48:51.192Z,19.43
2018-09-14T09:51:20.013Z,20.33
2018-09-14T09:53:49.534Z,13.97
2018-09-14T09:56:19.286Z,13.17
2018-09-14T09:58:48.712Z,12.17
2018-09-14T10:01:22.637Z,13.30
2018-09-14T10:03:55.325Z,11.03
2018-09-14T10:06:23.922Z,10.33
2018-09-14T10:08:53.473Z,10.67
2018-09-14T10:11:21.922Z,8.70
2018-09-14T10:13:50.940Z,9.60
2018-09-14T10:16:19.423Z,13.00
2018-09-14T10:18:47.887Z,10.50
2018-09-14T10:21:16.449Z,7.90
2018-09-14T10:23:44.850Z,10.63
2018-09-14T10:26:14.752Z,7.67
2018-09-14T10:28:43.274Z,14.73
2018-09-14T10:31:12.176Z,9.77
2018-09-14T10:33:40.687Z,9.23
2018-09-14T10:36:09.285Z,10.90
2018-09-14T10:38:38.275Z,9.10
2018-09-14T10:41:07.626Z,11.63
2018-09-14T10:43:36.307Z,11.33
2018-09-14T10:46:05.535Z,16.40
2018-09-14T10:48:34.032Z,5.03
2018-09-14T10:51:02.566Z,6.80
2018-09-14T10:53:31.115Z,6.07
2018-09-14T10:55:59.609Z,11.20
2018-09-14T10:58:32.172Z,8.77
2018-09-14T11:01:00.967Z,11.13
2018-09-14T11:03:30.866Z,12.50
2018-09-14T11:05:59.473Z,7.80
2018-09-14T11:08:29.120Z,14.27
2018-09-14T11:10:57.545Z,15.97
2018-09-14T11:13:26.006Z,8.97
2018-09-14T11:15:54.607Z,10.67
2018-09-14T11:18:23.157Z,20.83
2018-09-14T11:20:51.838Z,13.50
2018-09-14T11:23:23.379Z,14.23
2018-09-14T11:25:51.678Z,9.13
2018-09-14T11:28:20.172Z,8.20
2018-09-14T11:30:49.116Z,12.27
2018-09-14T11:33:17.570Z,12.37
2018-09-14T11:35:46.262Z,11.93
2018-09-14T11:38:14.866Z,8.97
2018-09-14T11:40:43.210Z,9.93
2018-09-14T11:43:11.769Z,16.63
2018-09-14T11:45:40.787Z,7.77
2018-09-14T11:48:09.514Z,9.80
2018-09-14T11:50:39.192Z,10.60
2018-09-14T11:53:09.086Z,14.50
2018-09-14T11:55:37.678Z,13.97
2018-09-14T11:58:06.320Z,10.67
2018-09-14T12:00:34.836Z,9.73
2018-09-14T12:03:03.339Z,10.07
2018-09-14T12:05:31.967Z,10.30
2018-09-14T12:08:00.744Z,13.07
2018-09-14T12:10:29.187Z,18.07
2018-09-14T12:12:57.959Z,7.60
2018-09-14T12:15:26.415Z,8.50
2018-09-14T12:17:55.222Z,7.80
2018-09-14T12:20:23.693Z,7.43
2018-09-14T12:22:52.353Z,8.47
2018-09-14T12:25:20.892Z,7.63
2018-09-14T12:27:50.616Z,9.10
2018-09-14T12:30:19.316Z,9.03
2018-09-14T12:32:47.999Z,8.03
2018-09-14T12:35:16.551Z,6.77
2018-09-14T12:37:45.192Z,7.57
2018-09-14T12:40:13.620Z,6.97
2018-09-14T12:42:42.636Z,10.37
2018-09-14T12:45:11.177Z,10.87
2018-09-14T12:47:39.765Z,8.23
2018-09-14T12:50:08.639Z,7.33
2018-09-14T12:52:37.071Z,7.93
2018-09-14T12:55:05.646Z,12.00
2018-09-14T12:57:34.162Z,9.17
2018-09-14T13:00:02.776Z,13.20
2018-09-14T13:02:33.521Z,13.50
2018-09-14T13:05:02.783Z,18.20
2018-09-14T13:07:31.401Z,11.77
2018-09-14T13:10:00.103Z,13.00
2018-09-14T13:12:28.796Z,13.30
2018-09-14T13:14:57.771Z,12.60
2018-09-14T13:17:28.102Z,15.83
2018-09-14T13:19:56.722Z,11.53
2018-09-14T13:22:25.359Z,11.53
2018-09-14T13:24:54.244Z,18.73
2018-09-14T13:27:22.792Z,13.63
2018-09-14T13:29:51.335Z,13.30
2018-09-14T13:32:21.642Z,13.50
2018-09-14T13:34:50.820Z,12.70
2018-09-14T13:37:20.062Z,12.23
2018-09-14T13:39:49.198Z,16.03
2018-09-14T13:42:18.982Z,17.30
2018-09-14T13:44:47.996Z,12.47
2018-09-14T13:47:16.580Z,13.30
2018-09-14T13:49:45.437Z,12.37
2018-09-14T13:52:14.616Z,10.30
2018-09-14T13:54:43.293Z,9.53
2018-09-14T13:57:11.834Z,11.33
2018-09-14T13:59:41.061Z,10.80
2018-09-14T14:02:09.766Z,11.00
2018-09-14T14:04:38.804Z,11.30
2018-09-14T14:07:07.642Z,10.37
2018-09-14T14:09:36.237Z,11.00
2018-09-14T14:12:04.815Z,8.03
2018-09-14T14:14:33.699Z,12.10
2018-09-14T14:17:02.275Z,9.33
2018-09-14T14:19:30.902Z,12.47
2018-09-14T14:22:01.047Z,8.37
2018-09-14T14:24:29.463Z,9.67
2018-09-14T14:26:57.896Z,7.67
2018-09-14T14:29:26.907Z,12.53
2018-09-14T14:31:56.019Z,10.90
2018-09-14T14:34:25.814Z,21.50
2018-09-14T14:36:54.392Z,10.00
2018-09-14T14:39:23.373Z,12.10
2018-09-14T14:41:52.302Z,9.47
2018-09-14T14:44:20.779Z,16.13
2018-09-14T14:46:49.381Z,11.83
2018-09-14T14:49:18.879Z,11.60
2018-09-14T14:51:47.412Z,8.77
2018-09-14T14:54:15.852Z,13.40
2018-09-14T14:56:44.279Z,10.53
2018-09-14T14:59:12.942Z,15.40
2018-09-14T15:01:41.436Z,22.40
2018-09-14T15:04:09.827Z,12.97
2018-09-14T15:06:38.457Z,13.40
2018-09-14T15:09:09.157Z,13.23
2018-09-14T15:11:37.555Z,20.43
2018-09-14T15:14:06.259Z,10.20
2018-09-14T15:16:34.731Z,15.93
2018-09-14T15:19:03.654Z,15.93
2018-09-14T15:21:32.921Z,10.87
2018-09-14T15:24:01.458Z,11.53
2018-09-14T15:26:29.924Z,15.23
2018-09-14T15:28:59.496Z,11.50
2018-09-14T15:31:28.718Z,10.50
2018-09-14T15:33:57.295Z,14.97
2018-09-14T15:36:25.987Z,10.97
2018-09-14T15:38:54.805Z,10.20
2018-09-14T15:41:23.290Z,9.90
2018-09-14T15:43:53.455Z,13.90
2018-09-14T15:46:22.047Z,9.53
2018-09-14T15:48:51.218Z,9.43
2018-09-14T15:51:20.485Z,15.80
2018-09-14T15:53:49.496Z,11.77
2018-09-14T15:56:18.031Z,15.27
2018-09-14T15:58:46.932Z,15.80
2018-09-14T16:01:15.633Z,8.83
2018-09-14T16:03:44.258Z,9.03
2018-09-14T16:06:12.679Z,8.10
2018-09-14T16:08:41.969Z,9.23
2018-09-14T16:11:10.434Z,11.27
2018-09-14T16:13:39.019Z,10.90
2018-09-14T16:16:07.857Z,17.30
2018-09-14T16:18:36.252Z,8.87
2018-09-14T16:21:05.076Z,9.87
2018-09-14T16:23:34.884Z,9.00
2018-09-14T16:26:04.091Z,8.03
2018-09-14T16:28:32.698Z,8.17
2018-09-14T16:31:05.135Z,23.83
2018-09-14T16:33:33.999Z,10.70
2018-09-14T16:36:03.241Z,17.73
2018-09-14T16:38:31.875Z,15.90
2018-09-14T16:41:01.293Z,10.77
2018-09-14T16:43:30.078Z,8.53
2018-09-14T16:45:58.747Z,7.27
2018-09-14T16:48:27.310Z,24.17
2018-09-14T16:50:55.948Z,12.70
2018-09-14T16:53:24.959Z,7.70
2018-09-14T16:55:54.136Z,13.00
2018-09-14T16:58:24.085Z,7.87
2018-09-14T17:00:52.687Z,36.97
2018-09-14T17:03:21.243Z,16.83
2018-09-14T17:05:51.018Z,10.63
2018-09-14T17:08:20.491Z,10.80
2018-09-14T17:10:49.075Z,11.40
2018-09-14T17:13:17.874Z,8.67
2018-09-14T17:15:46.658Z,7.43
2018-09-14T17:18:15.279Z,11.30
2018-09-14T17:21:16.001Z,13.77
2018-09-14T17:23:44.501Z,13.03
2018-09-14T17:26:13.193Z,8.20
2018-09-14T17:28:41.900Z,13.13
2018-09-14T17:31:11.578Z,6.80
2018-09-14T17:33:40.054Z,14.00
2018-09-14T17:36:08.700Z,9.30
2018-09-14T17:38:45.430Z,7.87
2018-09-14T17:41:16.568Z,6.80
2018-09-14T17:43:46.750Z,17.57
2018-09-14T17:46:17.628Z,11.20
2018-09-14T17:48:50.005Z,9.43
2018-09-14T17:51:19.540Z,7.13
2018-09-14T17:53:51.100Z,13.83
2018-09-14T17:56:21.980Z,9.63
2018-09-14T17:58:56.021Z,13.33
2018-09-14T18:01:30.919Z,11.90
2018-09-14T18:04:01.390Z,14.63
2018-09-14T18:06:33.552Z,11.43
2018-09-14T18:09:18.682Z,10.73
2018-09-14T18:11:53.664Z,17.63
2018-09-14T18:14:24.445Z,11.57
2018-09-14T18:16:52.989Z,11.20
2018-09-14T18:19:21.569Z,14.60
2018-09-14T18:21:52.607Z,15.33
2018-09-14T18:24:22.972Z,10.17
2018-09-14T18:26:52.496Z,20.67
2018-09-14T18:29:22.368Z,16.87
2018-09-14T18:31:52.994Z,15.13
2018-09-14T18:34:22.497Z,17.57
2018-09-14T18:36:52.724Z,15.60
2018-09-14T18:39:22.366Z,12.40
2018-09-14T18:41:51.771Z,18.87
2018-09-14T18:44:21.480Z,11.07
2018-09-14T18:46:50.979Z,11.20
2018-09-14T18:49:20.516Z,11.17
2018-09-14T18:51:49.596Z,16.53
2018-09-14T18:54:20.440Z,14.83
2018-09-14T18:56:51.159Z,15.63
2018-09-14T18:59:20.110Z,17.53
2018-09-14T19:01:51.362Z,14.77
2018-09-14T19:04:20.801Z,14.37
2018-09-14T19:06:50.811Z,30.70
2018-09-14T19:09:22.358Z,25.10
2018-09-14T19:11:51.932Z,15.67
2018-09-14T19:14:21.863Z,15.73
2018-09-14T19:16:52.481Z,15.50
2018-09-14T19:19:22.275Z,13.50
2018-09-14T19:21:52.735Z,12.27
2018-09-14T19:24:23.353Z,11.73
2018-09-14T19:26:52.946Z,18.53
2018-09-14T19:29:23.626Z,15.27
2018-09-14T19:31:55.594Z,18.50
2018-09-14T19:34:26.741Z,16.90
2018-09-14T19:36:55.890Z,11.50
2018-09-14T19:39:27.382Z,16.43
2018-09-14T19:41:57.912Z,16.07
2018-09-14T19:44:28.052Z,17.33
2018-09-14T19:46:58.354Z,22.13
2018-09-14T19:49:28.390Z,17.47
2018-09-14T19:51:59.467Z,16.33
2018-09-14T19:54:29.294Z,15.27
2018-09-14T19:56:59.199Z,25.50
2018-09-14T19:59:28.493Z,28.07
2018-09-14T20:01:59.255Z,15.63
2018-09-14T20:04:29.666Z,17.50
2018-09-14T20:06:58.336Z,20.77
2018-09-14T20:09:27.561Z,13.20
2018-09-14T20:11:56.083Z,23.60
2018-09-14T20:14:24.926Z,15.60
2018-09-14T20:16:54.624Z,15.77
2018-09-14T20:19:23.218Z,16.07
2018-09-14T20:21:51.792Z,21.50
2018-09-14T20:24:20.332Z,27.07
2018-09-14T20:26:49.291Z,14.50
2018-09-14T20:29:18.786Z,28.73
2018-09-14T20:31:49.445Z,20.03
2018-09-14T20:34:18.578Z,18.97
2018-09-14T20:36:47.610Z,20.13
2018-09-14T20:39:16.635Z,18.30
2018-09-14T20:41:45.178Z,16.53
2018-09-14T20:44:13.997Z,11.73
2018-09-14T20:46:42.555Z,18.90
2018-09-14T20:49:11.149Z,15.43
2018-09-14T20:51:40.499Z,19.87
2018-09-14T20:54:09.379Z,16.70
2018-09-14T20:56:37.922Z,16.33
2018-09-14T20:59:06.777Z,14.23
2018-09-14T21:01:35.667Z,14.70
2018-09-14T21:04:06.214Z,23.93
2018-09-14T21:06:34.692Z,18.30
2018-09-14T21:09:05.607Z,23.20
2018-09-14T21:11:35.128Z,16.30
2018-09-14T21:14:03.548Z,13.27
2018-09-14T21:16:32.042Z,17.00
2018-09-14T21:19:01.711Z,13.60
2018-09-14T21:21:30.597Z,14.87
2018-09-14T21:23:59.145Z,15.07
2018-09-14T21:26:27.937Z,14.53
2018-09-14T21:28:56.722Z,12.40
2018-09-14T21:31:28.252Z,12.60
2018-09-14T21:33:57.127Z,14.90
2018-09-14T21:36:26.693Z,18.80
2018-09-14T21:38:55.348Z,13.83
2018-09-14T21:41:24.126Z,23.23
2018-09-14T21:43:52.673Z,40.23
2018-09-14T21:46:22.325Z,14.77
2018-09-14T21:48:51.225Z,23.20
2018-09-14T21:51:24.057Z,14.93
2018-09-14T21:53:57.153Z,18.13
2018-09-14T21:56:27.141Z,16.70
2018-09-14T21:58:56.402Z,13.20
2018-09-14T22:01:29.459Z,17.10
2018-09-14T22:03:59.162Z,21.70
2018-09-14T22:06:28.153Z,18.50
2018-09-14T22:08:56.990Z,14.80
2018-09-14T22:11:25.668Z,26.70
2018-09-14T22:13:54.456Z,20.47
2018-09-14T22:16:22.980Z,16.47
2018-09-14T22:18:51.484Z,12.70
2018-09-14T22:21:19.957Z,17.73
2018-09-14T22:23:49.957Z,13.60
2018-09-14T22:26:18.464Z,13.27
2018-09-14T22:28:46.990Z,15.53
2018-09-14T22:31:16.094Z,13.07
2018-09-14T22:33:44.903Z,12.27
2018-09-14T22:36:13.450Z,19.43
2018-09-14T22:38:42.063Z,16.40
2018-09-14T22:41:10.554Z,12.30
2018-09-14T22:43:39.101Z,12.90
2018-09-14T22:46:07.880Z,15.00
2018-09-14T22:48:37.039Z,13.87
2018-09-14T22:51:05.466Z,13.53
2018-09-14T22:53:33.967Z,20.80
2018-09-14T22:56:03.909Z,14.60
2018-09-14T22:58:33.294Z,15.60
2018-09-14T23:01:05.985Z,14.57
2018-09-14T23:03:34.558Z,17.13
2018-09-14T23:06:03.049Z,15.00
2018-09-14T23:08:31.649Z,39.77
2018-09-14T23:11:00.652Z,15.80
2018-09-14T23:13:29.277Z,16.43
2018-09-14T23:15:59.637Z,17.47
2018-09-14T23:18:29.037Z,18.87
2018-09-14T23:20:58.406Z,15.40
2018-09-14T23:23:27.178Z,20.27
2018-09-14T23:25:58.086Z,15.87
2018-09-14T23:28:26.587Z,13.50
2018-09-14T23:30:56.210Z,13.97
2018-09-14T23:33:24.788Z,14.17
2018-09-14T23:35:53.415Z,13.37
2018-09-14T23:38:23.249Z,16.53
2018-09-14T23:40:51.797Z,17.40
2018-09-14T23:43:20.166Z,16.57
2018-09-14T23:45:48.621Z,16.80
2018-09-14T23:48:17.135Z,15.97
2018-09-14T23:50:45.576Z,20.10
2018-09-14T23:53:14.466Z,21.20
2018-09-14T23:55:42.969Z,18.50
2018-09-14T23:58:11.463Z,16.10
